Keldron, South Dakota
Current Conditions -  °F | °C
As of 3:53 AM on Wednesday 22 Oct 2014 (Local Time) from KHEI Reporting Station
Clear Clear  
Wind Chill: 51°   Ceiling: Unl
Heat Index: 51°   Visibility: 10mi
Dew Point: 44°   Wind: 17mph
Humidity: 77%   Direction: 290°WNW
Pressure: 29.81"   Gusts: NA
Location:  45.93°N, 101.82°W
Report Text: KHEI 220953Z AUTO 29015KT 10SM CLR 11/07 A2981 RMK AO2 SLP081 T01060067
Loading
Personal Weather Stations






























Interactive Weather Map
Tropical Storm Tracking
New forecast layout! Learn more

10-Day Weather Forecast

Advertisements
Track Severe Weather on mobile